Time;durP1;ratioP1;P1;durP2;ratioP2;P2;SDS_P1;SDS_P2;PMS_P1;PMS_P2;Temp;Humidity;BMP_temperature;BMP_pressure;BME280_temperature;BME280_humidity;BME280_pressure;Samples;Min_cycle;Max_cycle;Signal;HPM_P1;HPM_P2
2022/01/24 00:00:09;;;;;;;25.73;18.80;;;;;;;9.13;59.01;102174.00;5136212;27;20030;-92
2022/01/24 00:02:35;;;;;;;23.35;18.15;;;;;;;9.12;58.99;102182.78;5136197;27;20378;-91
2022/01/24 00:05:00;;;;;;;25.20;18.63;;;;;;;9.19;58.63;102164.22;5136177;27;20094;-91
2022/01/24 00:07:25;;;;;;;25.95;18.75;;;;;;;9.19;58.67;102159.00;5136048;27;20376;-91
2022/01/24 00:09:54;;;;;;;25.88;17.05;;;;;;;9.20;58.34;102173.78;5136198;27;20023;-91
2022/01/24 00:12:29;;;;;;;21.75;17.05;;;;;;;9.18;58.58;102180.84;5117836;27;20046;-92
2022/01/24 00:17:42;;;;;;;22.05;16.35;;;;;;;9.59;57.80;102168.09;5136171;27;20488;-92
2022/01/24 00:28:22;;;;;;;21.52;16.80;;;;;;;9.65;57.22;102160.84;5135756;27;20030;-91
2022/01/24 00:30:48;;;;;;;25.50;17.15;;;;;;;9.69;57.56;102172.09;5135601;27;20272;-92
2022/01/24 00:33:15;;;;;;;26.38;18.33;;;;;;;9.77;57.15;102167.41;5117145;27;20253;-91
2022/01/24 00:35:40;;;;;;;22.55;17.25;;;;;;;9.84;56.97;102155.78;5135517;27;20392;-91
2022/01/24 00:38:06;;;;;;;23.27;16.92;;;;;;;9.76;56.98;102154.38;5135622;27;20027;-91
2022/01/24 00:40:36;;;;;;;21.80;16.83;;;;;;;9.84;56.91;102153.16;5135610;27;20027;-92
2022/01/24 00:43:05;;;;;;;24.23;16.63;;;;;;;9.82;56.92;102151.53;5135287;27;20048;-91
2022/01/24 00:45:52;;;;;;;22.58;15.60;;;;;;;9.84;57.02;102155.78;5135313;27;20015;-91
2022/01/24 00:54:02;;;;;;;17.60;13.45;;;;;;;9.69;57.31;102157.19;5135270;27;20087;-92
2022/01/24 00:56:27;;;;;;;19.23;13.30;;;;;;;9.80;56.59;102151.56;5116725;27;20027;-91
2022/01/24 00:58:53;;;;;;;20.08;15.00;;;;;;;9.78;56.95;102156.03;5135039;27;20366;-91
2022/01/24 01:01:18;;;;;;;16.23;13.20;;;;;;;9.84;57.32;102157.56;5116700;27;20019;-92
2022/01/24 01:03:44;;;;;;;17.92;13.73;;;;;;;9.83;56.86;102153.22;5135022;27;20023;-91
2022/01/24 01:06:11;;;;;;;17.90;14.43;;;;;;;9.85;56.99;102156.63;5134986;27;20079;-91
2022/01/24 01:19:37;;;;;;;24.70;16.23;;;;;;;9.89;56.94;102155.59;5135085;27;20092;-91
2022/01/24 01:22:03;;;;;;;18.77;15.07;;;;;;;9.90;56.98;102155.56;5134586;27;20048;-92
2022/01/24 01:24:31;;;;;;;22.15;15.07;;;;;;;9.97;56.88;102158.78;5134640;27;20106;-92
2022/01/24 01:27:05;;;;;;;19.50;14.57;;;;;;;9.96;57.09;102153.63;5134669;27;20076;-91
2022/01/24 01:29:44;;;;;;;19.63;15.05;;;;;;;9.98;57.16;102155.28;5134517;27;20031;-92
2022/01/24 01:55:53;;;;;;;23.58;16.85;;;;;;;9.95;57.06;102157.16;5134207;27;20038;-92
2022/01/24 01:58:20;;;;;;;19.92;14.70;;;;;;;9.95;57.02;102157.16;5133908;27;20019;-91
2022/01/24 02:00:49;;;;;;;21.05;16.20;;;;;;;10.02;56.70;102161.28;5133750;27;20380;-92
2022/01/24 02:03:15;;;;;;;21.00;16.42;;;;;;;9.96;56.98;102153.63;5115249;27;20368;-91
2022/01/24 02:05:41;;;;;;;19.65;15.80;;;;;;;10.00;56.80;102152.59;5133974;27;20030;-91
2022/01/24 02:08:07;;;;;;;22.20;16.45;;;;;;;9.98;57.12;102150.03;5133738;27;20098;-91
2022/01/24 02:10:36;;;;;;;21.92;16.95;;;;;;;10.02;57.43;102158.66;5115382;27;20544;-92
2022/01/24 02:13:03;;;;;;;23.17;16.85;;;;;;;10.00;57.25;102166.56;5133616;27;20069;-91
2022/01/24 02:18:08;;;;;;;25.15;16.80;;;;;;;9.95;56.74;102158.00;5133810;27;20026;-91
2022/01/24 02:25:40;;;;;;;21.42;16.42;;;;;;;9.88;56.96;102146.88;5133525;27;20042;-92
2022/01/24 02:28:10;;;;;;;21.50;15.90;;;;;;;9.86;57.07;102143.47;5115046;27;20011;-91
2022/01/24 02:33:09;;;;;;;21.40;14.90;;;;;;;9.91;57.18;102151.16;5133483;27;20487;-92
2022/01/24 02:35:34;;;;;;;22.83;16.75;;;;;;;9.95;56.84;102144.03;5133321;27;20129;-91
2022/01/24 02:38:03;;;;;;;22.30;16.50;;;;;;;9.91;56.55;102146.78;5133389;27;20133;-91
2022/01/24 02:40:29;;;;;;;21.05;15.90;;;;;;;9.78;56.83;102139.44;5132888;27;20388;-91
2022/01/24 02:48:26;;;;;;;22.70;15.70;;;;;;;9.67;57.58;102134.56;5133184;27;20041;-92
2022/01/24 02:53:45;;;;;;;24.08;17.67;;;;;;;9.78;57.19;102136.81;5133021;27;20050;-92
2022/01/24 02:56:11;;;;;;;25.95;16.48;;;;;;;9.76;57.61;102134.25;5133137;27;20023;-92
2022/01/24 02:58:36;;;;;;;25.80;18.02;;;;;;;9.76;57.21;102134.25;5132888;27;20023;-92
2022/01/24 03:01:06;;;;;;;22.48;16.95;;;;;;;9.67;57.22;102138.03;5132632;27;20026;-91
2022/01/24 03:03:33;;;;;;;22.33;16.08;;;;;;;9.61;57.27;102132.16;5132710;27;20589;-91
2022/01/24 03:05:58;;;;;;;22.17;16.17;;;;;;;9.57;57.54;102133.19;5132787;27;20019;-91
2022/01/24 03:08:23;;;;;;;23.02;17.25;;;;;;;9.64;57.19;102134.69;5132780;27;20079;-91
2022/01/24 03:10:51;;;;;;;23.65;16.95;;;;;;;9.62;57.39;102139.13;5132872;27;20034;-91
2022/01/24 03:15:47;;;;;;;25.55;17.45;;;;;;;9.60;57.80;102128.69;5132786;28;20405;-91
2022/01/24 03:18:12;;;;;;;25.33;17.77;;;;;;;9.59;58.11;102128.75;5132849;28;20028;-92
2022/01/24 03:20:38;;;;;;;22.65;16.92;;;;;;;9.47;57.46;102120.41;5132650;28;20035;-91
2022/01/24 03:23:04;;;;;;;26.20;17.95;;;;;;;9.48;58.18;102116.03;5132603;28;20022;-91
2022/01/24 03:25:30;;;;;;;23.40;16.63;;;;;;;9.61;57.47;102114.66;5132678;28;20019;-91
2022/01/24 03:27:56;;;;;;;22.48;16.48;;;;;;;9.52;58.07;102101.91;5132695;28;20050;-91
2022/01/24 03:30:23;;;;;;;24.95;17.58;;;;;;;9.49;57.62;102107.25;5132585;28;20106;-91
2022/01/24 03:32:48;;;;;;;23.95;17.13;;;;;;;9.51;58.24;102111.50;5135391;27;20484;-91
2022/01/24 03:35:14;;;;;;;26.85;17.75;;;;;;;9.52;57.80;102115.84;5118512;27;20023;-91
2022/01/24 03:37:40;;;;;;;23.90;17.65;;;;;;;9.37;58.18;102098.06;5118426;27;20059;-92
2022/01/24 03:40:06;;;;;;;27.00;18.75;;;;;;;9.30;58.60;102096.53;5136700;27;20381;-91
2022/01/24 03:42:32;;;;;;;23.90;17.58;;;;;;;9.49;57.82;102092.34;5136435;27;20028;-91
2022/01/24 03:45:01;;;;;;;26.02;18.25;;;;;;;9.44;58.28;102091.69;5136523;27;20024;-91
2022/01/24 03:50:15;;;;;;;22.95;15.98;;;;;;;9.29;58.67;102090.47;5136429;27;20545;-91
2022/01/24 03:52:41;;;;;;;27.20;18.33;;;;;;;9.36;58.09;102088.50;5136382;27;20023;-91
2022/01/24 03:55:07;;;;;;;26.98;18.25;;;;;;;9.36;58.39;102088.50;5136358;27;20458;-91
2022/01/24 03:57:32;;;;;;;25.90;17.73;;;;;;;9.28;58.82;102082.63;5136145;27;20098;-91
2022/01/24 03:59:58;;;;;;;24.15;18.35;;;;;;;9.28;58.57;102099.25;5136378;27;20054;-91
2022/01/24 04:02:27;;;;;;;27.27;18.45;;;;;;;9.29;58.76;102095.69;5136370;27;20287;-91
2022/01/24 04:04:53;;;;;;;26.50;18.48;;;;;;;9.30;58.47;102094.81;5136240;27;20058;-91
2022/01/24 04:07:19;;;;;;;28.15;18.83;;;;;;;9.13;58.37;102092.75;5136320;27;20027;-91
2022/01/24 04:09:46;;;;;;;24.27;16.73;;;;;;;9.26;58.42;102101.06;5136647;27;20132;-91
2022/01/24 04:12:13;;;;;;;23.17;17.08;;;;;;;9.37;58.49;102099.81;5136027;27;20023;-91
2022/01/24 04:15:06;;;;;;;22.67;15.23;;;;;;;9.16;58.61;102083.09;5136102;27;20030;-91
2022/01/24 04:17:38;;;;;;;19.77;14.80;;;;;;;9.24;58.28;102088.91;5135902;27;20039;-91
2022/01/24 04:22:51;;;;;;;20.95;15.45;;;;;;;9.31;58.07;102087.78;5107105;27;20447;-91
2022/01/24 04:25:22;;;;;;;24.15;15.85;;;;;;;9.37;57.85;102092.81;5095111;28;20031;-92
2022/01/24 04:27:48;;;;;;;20.48;15.00;;;;;;;9.32;58.34;102100.84;5076796;28;20366;-91
2022/01/24 04:30:14;;;;;;;19.45;14.52;;;;;;;9.28;57.93;102085.25;5094865;28;20109;-91
2022/01/24 04:32:39;;;;;;;24.58;16.52;;;;;;;9.40;57.82;102083.97;5094692;28;20414;-91
2022/01/24 04:35:04;;;;;;;22.83;14.75;;;;;;;9.41;57.67;102090.94;5094680;28;20429;-91
2022/01/24 04:37:30;;;;;;;19.65;14.70;;;;;;;9.45;57.57;102101.25;5094710;28;20103;-91
2022/01/24 04:39:56;;;;;;;23.13;15.65;;;;;;;9.44;57.48;102089.06;5094579;28;20078;-91
2022/01/24 04:42:30;;;;;;;20.83;15.40;;;;;;;9.45;57.59;102100.41;5094714;28;20060;-91
2022/01/24 04:45:21;;;;;;;21.52;15.68;;;;;;;9.44;57.70;102094.31;5093783;28;20431;-91
2022/01/24 04:51:04;;;;;;;19.85;14.35;;;;;;;9.24;58.17;102088.91;4973041;28;20067;-91
2022/01/24 04:56:04;;;;;;;20.13;14.52;;;;;;;9.18;57.83;102086.50;5052003;28;20051;-91
2022/01/24 04:58:30;;;;;;;25.40;15.55;;;;;;;9.34;58.20;102098.19;5094245;28;20036;-92
2022/01/24 05:00:55;;;;;;;21.88;14.25;;;;;;;9.28;58.32;102099.25;5094173;28;20070;-91
2022/01/24 05:03:20;;;;;;;18.30;13.40;;;;;;;9.29;58.45;102100.94;5094261;28;20020;-91
2022/01/24 05:05:47;;;;;;;20.60;14.68;;;;;;;9.39;57.59;102092.75;5094341;28;20546;-91
2022/01/24 05:08:14;;;;;;;21.05;14.43;;;;;;;9.37;58.29;102087.56;5075853;28;20549;-91
2022/01/24 05:10:52;;;;;;;20.10;13.85;;;;;;;9.35;57.71;102099.88;5094060;28;20032;-91
2022/01/24 05:23:24;;;;;;;20.63;14.75;;;;;;;9.29;57.46;102093.06;5093829;28;20039;-91
2022/01/24 05:24:17;;;;;;;24.50;15.77;;;;;;;9.32;58.28;102090.38;5093141;28;20059;-91
2022/01/24 05:26:42;;;;;;;22.13;14.95;;;;;;;9.31;57.52;102093.88;5093654;28;20108;-92
2022/01/24 05:29:08;;;;;;;22.00;15.07;;;;;;;9.38;57.54;102098.91;5093589;28;20028;-92
2022/01/24 05:31:33;;;;;;;23.77;14.23;;;;;;;9.40;57.77;102087.47;5093753;28;20491;-91
2022/01/24 05:33:58;;;;;;;20.27;13.82;;;;;;;9.42;57.96;102101.38;5093458;28;20028;-91
2022/01/24 05:36:24;;;;;;;21.05;14.05;;;;;;;9.46;57.92;102105.59;5093658;28;20059;-91
2022/01/24 05:38:49;;;;;;;21.35;15.75;;;;;;;8.97;58.70;102099.44;5093580;28;20028;-90
2022/01/24 05:41:15;;;;;;;19.73;14.57;;;;;;;9.20;58.56;102101.28;5093386;28;20458;-92
2022/01/24 05:43:41;;;;;;;22.02;15.00;;;;;;;9.29;57.64;102094.84;5075135;28;20016;-91
2022/01/24 05:46:06;;;;;;;23.60;16.80;;;;;;;9.32;57.93;102089.47;5093273;28;20035;-92
2022/01/24 05:48:32;;;;;;;19.88;15.10;;;;;;;9.40;57.45;102084.84;5093354;28;20024;-92
2022/01/24 05:50:57;;;;;;;21.42;15.95;;;;;;;9.42;57.50;102092.63;5075360;28;20032;-92
2022/01/24 05:53:23;;;;;;;21.83;14.60;;;;;;;9.42;57.29;102085.66;5075000;28;20032;-91
2022/01/24 05:55:48;;;;;;;22.65;15.23;;;;;;;9.38;57.83;102098.91;5093242;28;20072;-92
2022/01/24 05:58:13;;;;;;;21.08;15.45;;;;;;;9.26;57.51;102094.94;5074850;28;20054;-91
2022/01/24 06:00:39;;;;;;;21.48;15.15;;;;;;;9.34;57.85;102098.19;5093262;28;20067;-91
2022/01/24 06:03:04;;;;;;;25.05;16.55;;;;;;;9.34;58.05;102095.56;5093020;28;20103;-91
2022/01/24 06:05:30;;;;;;;24.23;15.80;;;;;;;9.28;57.64;102101.88;5092905;28;20036;-92
2022/01/24 06:07:55;;;;;;;21.83;14.80;;;;;;;9.28;58.08;102093.13;5093060;28;20020;-91
2022/01/24 06:10:21;;;;;;;22.55;15.93;;;;;;;9.34;57.18;102092.94;5092956;28;20437;-91
2022/01/24 06:12:46;;;;;;;21.08;14.50;;;;;;;9.34;57.82;102092.94;5092792;28;20126;-91
2022/01/24 06:15:12;;;;;;;21.65;16.00;;;;;;;9.36;57.97;102093.75;5092795;28;20047;-91
2022/01/24 06:17:38;;;;;;;25.27;15.93;;;;;;;9.36;57.73;102098.97;5074580;28;20024;-91
2022/01/24 06:20:05;;;;;;;23.83;15.93;;;;;;;9.41;57.30;102099.66;5092691;28;20161;-92
2022/01/24 06:22:31;;;;;;;20.52;14.20;;;;;;;9.38;57.98;102096.28;5074450;28;20032;-91
2022/01/24 06:24:56;;;;;;;21.60;14.70;;;;;;;9.22;57.98;102099.47;5092673;28;20023;-91
2022/01/24 06:27:22;;;;;;;20.90;14.90;;;;;;;9.26;57.83;102094.94;5092631;28;20039;-91
2022/01/24 06:29:47;;;;;;;25.08;16.38;;;;;;;9.29;57.22;102111.44;5092645;28;20495;-92
2022/01/24 06:32:12;;;;;;;20.85;14.77;;;;;;;9.32;57.46;102110.47;5092458;28;20024;-91
2022/01/24 06:34:38;;;;;;;21.02;15.70;;;;;;;9.19;57.84;102104.81;5074267;28;20370;-91
2022/01/24 06:37:04;;;;;;;27.35;16.88;;;;;;;9.35;57.26;102122.63;5092541;28;20082;-91
2022/01/24 06:39:30;;;;;;;25.48;18.08;;;;;;;9.25;58.11;102120.31;5074352;28;20028;-91
2022/01/24 06:42:12;;;;;;;23.23;16.45;;;;;;;9.22;58.12;102122.19;5095853;28;20028;-92
2022/01/24 06:44:38;;;;;;;26.77;16.35;;;;;;;9.19;58.23;102114.44;5092248;28;20020;-90
2022/01/24 06:47:04;;;;;;;22.27;16.38;;;;;;;9.26;57.64;102129.03;5092201;28;20170;-90
2022/01/24 06:49:29;;;;;;;22.45;16.67;;;;;;;9.24;57.66;102118.63;5092172;28;20028;-92
2022/01/24 06:51:54;;;;;;;21.85;15.68;;;;;;;9.27;58.11;102133.38;5108120;28;20080;-93
2022/01/24 06:54:20;;;;;;;21.67;16.52;;;;;;;9.17;58.37;102126.75;5094358;28;20061;-93
2022/01/24 06:56:45;;;;;;;22.52;16.40;;;;;;;9.16;58.29;102141.59;5111752;28;20019;-90
2022/01/24 06:59:11;;;;;;;21.25;16.42;;;;;;;9.15;58.09;102139.88;5112331;28;20073;-93
2022/01/24 07:01:36;;;;;;;23.33;17.40;;;;;;;9.21;57.86;102138.81;5112110;28;20026;-93
2022/01/24 07:04:03;;;;;;;23.73;15.88;;;;;;;9.16;57.83;102133.72;5112163;28;20385;-93
2022/01/24 07:06:28;;;;;;;22.17;17.13;;;;;;;9.16;57.85;102130.25;5111908;28;20032;-92
2022/01/24 07:08:54;;;;;;;24.58;17.40;;;;;;;9.10;57.80;102132.19;5112169;28;20035;-93
2022/01/24 07:11:19;;;;;;;25.23;17.00;;;;;;;9.12;58.68;102134.75;5111526;28;20114;-93
2022/01/24 07:13:45;;;;;;;25.77;17.27;;;;;;;8.97;58.67;102143.16;5112109;28;20027;-93
2022/01/24 07:16:12;;;;;;;24.05;16.42;;;;;;;9.07;58.21;102141.91;5112745;28;20051;-94
2022/01/24 07:21:21;;;;;;;28.30;17.85;;;;;;;8.99;58.30;102159.66;5114507;28;20117;-93
2022/01/24 07:23:47;;;;;;;20.95;16.25;;;;;;;9.10;58.42;102163.66;5112773;28;20045;-92
2022/01/24 07:26:12;;;;;;;27.20;17.55;;;;;;;9.16;58.31;102164.31;5115321;28;20389;-92
2022/01/24 07:28:38;;;;;;;22.63;16.58;;;;;;;9.16;58.19;102161.69;5112358;28;20030;-92
2022/01/24 07:31:03;;;;;;;24.83;16.63;;;;;;;9.17;57.84;102171.28;5112278;28;20046;-91
2022/01/24 07:33:29;;;;;;;23.92;15.63;;;;;;;9.24;58.16;102172.78;5112187;28;20081;-92
2022/01/24 07:35:55;;;;;;;22.55;15.32;;;;;;;9.10;58.32;102174.13;5112068;28;20427;-93
2022/01/24 07:38:20;;;;;;;23.15;16.30;;;;;;;8.88;58.86;102180.97;5111940;28;20028;-93
2022/01/24 07:40:48;;;;;;;24.08;16.38;;;;;;;9.05;58.60;102186.50;5111488;28;20387;-95
2022/01/24 07:43:14;;;;;;;23.88;16.90;;;;;;;9.13;58.24;102173.16;5112426;28;20020;-95
2022/01/24 07:45:43;;;;;;;25.33;17.42;;;;;;;9.03;58.69;102177.00;5112461;28;20016;-93
2022/01/24 07:48:09;;;;;;;23.48;17.08;;;;;;;9.07;58.82;102178.59;5112450;28;20485;-93
2022/01/24 07:50:40;;;;;;;23.38;16.08;;;;;;;9.05;58.58;102181.28;5111503;28;20032;-92
2022/01/24 07:53:06;;;;;;;22.52;16.45;;;;;;;9.12;58.32;102188.03;5111561;28;20023;-93
2022/01/24 07:55:33;;;;;;;27.02;18.60;;;;;;;8.95;58.69;102189.50;5109824;28;20028;-92
2022/01/24 07:57:59;;;;;;;25.85;17.00;;;;;;;9.13;58.13;102189.72;5110733;28;20020;-91
2022/01/24 08:00:24;;;;;;;26.80;18.27;;;;;;;9.08;57.76;102189.03;5111245;28;20487;-91
2022/01/24 08:02:50;;;;;;;23.85;17.42;;;;;;;9.17;58.17;102190.50;5110950;28;20020;-92
2022/01/24 08:05:15;;;;;;;24.95;17.20;;;;;;;9.08;58.03;102181.19;5110524;28;20449;-92
2022/01/24 08:07:41;;;;;;;25.30;17.10;;;;;;;9.06;58.08;102182.13;5111131;28;20469;-92
2022/01/24 08:10:09;;;;;;;26.25;16.58;;;;;;;9.06;58.21;102183.00;5109784;28;20039;-92
2022/01/24 08:12:35;;;;;;;25.85;18.13;;;;;;;9.07;57.64;102173.38;5110798;28;20393;-91
2022/01/24 08:15:02;;;;;;;27.92;17.95;;;;;;;9.17;57.54;102179.16;5111436;28;20031;-90
2022/01/24 08:17:28;;;;;;;23.05;15.98;;;;;;;9.18;57.57;102191.34;5109358;28;20036;-90
2022/01/24 08:19:53;;;;;;;26.83;17.95;;;;;;;9.08;57.84;102189.03;5113549;28;20031;-94
2022/01/24 08:22:18;;;;;;;24.90;17.55;;;;;;;9.08;57.75;102175.94;5113734;28;20408;-92
2022/01/24 08:24:45;;;;;;;24.55;17.10;;;;;;;9.18;58.10;102196.56;5113499;28;20019;-92
2022/01/24 08:27:11;;;;;;;25.77;17.65;;;;;;;9.16;57.82;102194.00;5113888;28;20393;-92
2022/01/24 08:29:36;;;;;;;25.88;17.55;;;;;;;9.16;58.08;102193.16;5113821;28;20027;-91
2022/01/24 08:32:02;;;;;;;27.98;19.08;;;;;;;9.21;58.32;102193.88;5113586;28;20160;-92
2022/01/24 08:34:28;;;;;;;25.25;17.58;;;;;;;9.23;57.75;102202.53;5114206;28;20110;-94
2022/01/24 08:36:53;;;;;;;26.80;17.75;;;;;;;9.01;57.88;102195.38;5096680;28;20116;-93
2022/01/24 08:39:18;;;;;;;33.42;18.33;;;;;;;9.05;58.40;102197.00;5114137;28;20035;-92
2022/01/24 08:41:59;;;;;;;30.38;19.90;;;;;;;9.01;58.71;102200.63;5119814;28;20039;-92
2022/01/24 08:45:44;;;;;;;29.15;19.10;;;;;;;9.15;58.17;102191.47;5113093;28;20035;-92
2022/01/24 08:47:19;;;;;;;30.25;19.75;;;;;;;9.07;58.44;102196.94;5114677;28;20024;-92
2022/01/24 08:49:44;;;;;;;31.10;19.27;;;;;;;9.13;57.51;102200.22;5115068;28;20034;-92
2022/01/24 08:52:10;;;;;;;31.02;20.17;;;;;;;9.02;58.55;102204.94;5096482;28;20394;-92
2022/01/24 08:54:35;;;;;;;25.17;18.55;;;;;;;8.84;58.43;102182.81;5096542;28;20311;-92
2022/01/24 08:57:02;;;;;;;27.60;18.58;;;;;;;9.33;58.12;102209.19;5114795;28;20031;-92
2022/01/24 08:59:27;;;;;;;32.35;20.63;;;;;;;9.09;57.90;102210.84;5114376;28;20118;-92
2022/01/24 09:01:53;;;;;;;28.35;18.05;;;;;;;9.27;57.89;102206.75;5114527;28;20530;-91
2022/01/24 09:04:19;;;;;;;27.45;18.50;;;;;;;9.21;57.80;102207.81;5114518;28;20107;-91
2022/01/24 09:06:44;;;;;;;29.40;20.27;;;;;;;9.14;57.45;102208.91;5096226;28;20546;-92
2022/01/24 09:09:10;;;;;;;27.10;18.08;;;;;;;9.19;57.69;102208.78;5114535;28;20023;-92
2022/01/24 09:11:36;;;;;;;29.85;19.13;;;;;;;8.90;58.37;102205.34;5114557;28;20028;-92
2022/01/24 09:14:08;;;;;;;27.67;18.38;;;;;;;8.90;58.16;102202.72;5096023;28;20026;-92
2022/01/24 09:16:34;;;;;;;25.50;17.88;;;;;;;9.09;57.85;102206.47;5096147;28;20080;-92
2022/01/24 09:18:59;;;;;;;28.00;17.88;;;;;;;8.98;57.66;102199.84;5114319;28;20477;-92
2022/01/24 09:21:28;;;;;;;27.58;18.92;;;;;;;8.83;58.14;102206.47;5114230;28;20032;-92
2022/01/24 09:23:54;;;;;;;28.92;19.05;;;;;;;8.94;57.58;102220.06;5114213;28;20115;-91
2022/01/24 09:26:20;;;;;;;25.42;17.20;;;;;;;9.11;57.70;102209.03;5114199;28;20525;-91
2022/01/24 09:28:45;;;;;;;29.88;19.00;;;;;;;9.25;57.82;102213.81;5114016;28;20031;-92
2022/01/24 09:31:11;;;;;;;30.33;20.10;;;;;;;9.04;57.84;102208.38;5113206;28;20077;-92
2022/01/24 09:33:36;;;;;;;27.48;18.27;;;;;;;9.13;57.71;102204.59;5113145;28;20096;-92
2022/01/24 09:36:03;;;;;;;33.35;18.55;;;;;;;9.25;57.14;102212.06;5112858;28;20043;-91
2022/01/24 09:38:33;;;;;;;26.25;17.50;;;;;;;9.12;57.48;102224.72;5113630;28;20085;-91
2022/01/24 09:41:02;;;;;;;26.20;16.90;;;;;;;9.11;57.79;102217.75;5113404;28;20028;-91
2022/01/24 09:43:28;;;;;;;25.77;18.08;;;;;;;9.15;57.00;102210.66;5113299;28;20035;-92
2022/01/24 09:45:53;;;;;;;24.50;17.67;;;;;;;8.90;57.46;102216.66;5113756;28;20023;-91
2022/01/24 09:48:19;;;;;;;27.20;18.98;;;;;;;8.93;57.57;102218.34;5113226;28;20023;-94
2022/01/24 09:50:46;;;;;;;28.05;19.50;;;;;;;9.15;56.77;102212.41;5114050;28;20153;-95
2022/01/24 09:53:15;;;;;;;26.63;17.88;;;;;;;9.22;56.83;102219.16;5114361;28;20061;-95
2022/01/24 09:55:41;;;;;;;27.73;19.33;;;;;;;9.10;57.19;102229.16;5113811;28;20536;-96
2022/01/24 09:58:06;;;;;;;24.63;17.75;;;;;;;8.93;57.40;102213.97;5094763;28;20170;-92
2022/01/24 10:00:32;;;;;;;27.45;18.50;;;;;;;9.21;57.25;102218.31;5113417;28;20054;-92
2022/01/24 10:02:58;;;;;;;28.92;19.13;;;;;;;9.27;56.72;102230.34;5112995;28;20050;-91
2022/01/24 10:05:30;;;;;;;29.08;18.75;;;;;;;9.00;57.13;102219.84;5112917;28;20469;-91
2022/01/24 10:08:00;;;;;;;27.90;18.27;;;;;;;9.28;56.28;102234.66;5112505;28;20024;-91
2022/01/24 10:10:34;;;;;;;27.73;18.52;;;;;;;9.13;57.14;102244.75;5112702;28;20030;-91
2022/01/24 10:16:24;;;;;;;31.73;18.42;;;;;;;9.40;57.12;102255.25;5111745;28;20081;-91
2022/01/24 10:19:00;;;;;;;30.05;18.92;;;;;;;9.38;57.02;102251.84;5112912;28;20027;-92
2022/01/24 10:21:26;;;;;;;27.15;18.65;;;;;;;9.23;57.23;102245.31;5112575;28;20035;-92
2022/01/24 10:23:51;;;;;;;30.38;18.33;;;;;;;9.31;56.69;102252.94;5112530;28;20499;-91
2022/01/24 10:26:18;;;;;;;28.17;17.52;;;;;;;9.31;56.93;102266.03;5112575;28;20027;-91
2022/01/24 10:28:46;;;;;;;30.65;19.33;;;;;;;9.19;57.09;102255.97;5112999;28;20096;-91
2022/01/24 10:31:24;;;;;;;31.35;19.83;;;;;;;9.30;56.87;102259.06;5112179;28;20027;-92
2022/01/24 10:34:11;;;;;;;28.92;18.15;;;;;;;9.41;56.57;102256.97;5105387;28;20023;-91
2022/01/24 10:36:39;;;;;;;25.58;17.48;;;;;;;9.53;56.59;102255.69;5112460;28;20080;-92
2022/01/24 10:39:20;;;;;;;26.02;17.63;;;;;;;9.61;56.80;102252.81;5094276;28;20035;-91
2022/01/24 10:42:09;;;;;;;27.77;18.83;;;;;;;9.35;57.26;102243.22;5093753;28;20031;-92
2022/01/24 10:44:37;;;;;;;26.95;19.17;;;;;;;9.48;56.25;102255.84;5093253;28;20405;-91
2022/01/24 10:47:33;;;;;;;28.90;18.58;;;;;;;9.37;57.06;102255.34;5094139;28;20023;-91
2022/01/24 10:50:03;;;;;;;34.67;19.38;;;;;;;9.50;56.69;102254.03;5093853;28;20023;-91
2022/01/24 10:52:31;;;;;;;29.05;17.77;;;;;;;9.46;56.86;102255.06;5112441;28;20027;-91
2022/01/24 10:55:19;;;;;;;32.72;21.23;;;;;;;9.47;56.95;102262.00;5112323;28;20034;-91
2022/01/24 10:57:47;;;;;;;29.38;18.90;;;;;;;9.46;56.89;102269.94;5112443;28;20442;-91
2022/01/24 11:00:25;;;;;;;30.45;18.90;;;;;;;9.38;56.93;102266.69;5094289;28;20062;-91
2022/01/24 11:02:59;;;;;;;32.15;19.23;;;;;;;9.46;56.92;102260.28;5112200;28;20077;-91
2022/01/24 11:05:36;;;;;;;30.70;19.67;;;;;;;9.45;56.49;102273.44;5112303;28;20415;-91
2022/01/24 11:08:28;;;;;;;27.85;18.58;;;;;;;9.49;57.24;102273.28;5112347;28;20030;-91
2022/01/24 11:10:53;;;;;;;28.98;17.58;;;;;;;9.62;56.92;102258.00;5089895;28;20427;-91
2022/01/24 11:13:19;;;;;;;31.80;20.83;;;;;;;9.56;56.66;102263.47;5093239;28;20023;-91
2022/01/24 11:15:55;;;;;;;31.02;18.63;;;;;;;9.42;56.58;102255.19;5093857;28;20496;-91
2022/01/24 11:18:24;;;;;;;32.13;19.67;;;;;;;9.37;56.70;102265.84;5111985;28;20027;-91
2022/01/24 11:20:51;;;;;;;30.25;18.48;;;;;;;9.53;56.87;102261.78;5111963;28;20034;-91
2022/01/24 11:23:21;;;;;;;29.75;20.20;;;;;;;9.48;56.45;102261.09;5094268;28;20049;-91
2022/01/24 11:25:48;;;;;;;27.15;18.40;;;;;;;9.43;56.64;102255.13;5112988;28;20487;-91
2022/01/24 11:28:13;;;;;;;32.92;19.42;;;;;;;9.52;56.75;102254.00;5110570;28;20054;-91
2022/01/24 11:30:39;;;;;;;30.20;20.33;;;;;;;9.61;56.72;102269.41;5091878;28;20048;-91
2022/01/24 11:33:11;;;;;;;31.70;20.00;;;;;;;9.46;56.94;102265.53;5073796;28;20030;-91
2022/01/24 11:35:38;;;;;;;;;;;;;;;9.50;57.15;102272.38;5074210;28;20027;-91
2022/01/24 11:38:03;;;;;;;30.05;18.10;;;;;;;9.65;56.29;102271.00;5073756;28;20422;-91
2022/01/24 11:40:45;;;;;;;29.67;18.27;;;;;;;9.57;56.32;102273.03;5091897;28;20039;-91
2022/01/24 11:43:24;;;;;;;;;;;;;;;9.23;57.37;102270.69;5113102;28;20442;-92
2022/01/24 11:45:59;;;;;;;29.45;19.13;;;;;;;9.19;57.16;102269.91;5121343;28;19919;-91
2022/01/24 11:48:25;;;;;;;28.73;19.00;;;;;;;9.10;57.79;102265.84;5107165;28;20028;-91
2022/01/24 11:50:59;;;;;;;30.00;20.08;;;;;;;9.23;58.04;102268.06;5091454;28;20024;-91
2022/01/24 11:53:36;;;;;;;35.75;20.02;;;;;;;9.49;56.90;102254.94;5110982;27;20023;-90
2022/01/24 11:56:22;;;;;;;37.42;20.48;;;;;;;9.57;57.09;102251.19;5097066;28;20027;-91
2022/01/24 11:58:49;;;;;;;32.42;19.40;;;;;;;9.67;56.67;102242.09;5099649;28;20047;-91
2022/01/24 12:01:36;;;;;;;40.00;22.70;;;;;;;9.82;56.19;102245.97;5115699;28;20028;-91
2022/01/24 12:04:02;;;;;;;32.83;20.67;;;;;;;9.64;55.89;102237.81;5120590;27;20028;-91
2022/01/24 12:06:27;;;;;;;39.90;21.38;;;;;;;9.61;55.95;102231.81;5096655;28;20027;-92
2022/01/24 12:09:06;;;;;;;41.25;21.88;;;;;;;9.35;56.93;102241.44;5129338;27;20152;-90
2022/01/24 12:11:35;;;;;;;35.45;20.52;;;;;;;9.58;56.44;102230.19;5117603;27;20019;-91
2022/01/24 12:14:23;;;;;;;36.15;20.02;;;;;;;9.67;56.70;102237.69;5118222;27;20106;-91
2022/01/24 12:16:49;;;;;;;29.73;20.23;;;;;;;9.51;56.53;102226.88;5121165;28;20088;-91
2022/01/24 12:19:28;;;;;;;50.45;21.83;;;;;;;9.51;56.28;102229.50;5095807;28;20489;-92
2022/01/24 12:21:53;;;;;;;36.40;20.55;;;;;;;9.49;56.58;102233.94;5115236;28;20036;-90
2022/01/24 12:24:21;;;;;;;31.98;20.38;;;;;;;9.40;56.63;102213.31;5114795;28;20064;-90
2022/01/24 12:26:49;;;;;;;29.95;19.30;;;;;;;9.77;56.30;102222.50;5114809;28;20024;-91
2022/01/24 12:29:27;;;;;;;28.80;18.80;;;;;;;9.86;55.83;102226.56;5115132;28;20027;-91
2022/01/24 12:31:56;;;;;;;27.75;17.88;;;;;;;9.84;56.26;102226.63;5114605;28;20011;-90
2022/01/24 12:34:38;;;;;;;31.92;20.65;;;;;;;9.91;55.97;102219.38;5114317;28;20021;-93
2022/01/24 12:37:27;;;;;;;30.23;19.55;;;;;;;9.81;55.94;102220.63;5114359;28;20068;-91
2022/01/24 12:40:05;;;;;;;30.40;19.38;;;;;;;9.82;55.93;102220.56;5096676;28;20024;-91
2022/01/24 12:42:57;;;;;;;41.65;21.30;;;;;;;9.80;56.38;102222.41;5117765;28;20036;-95
2022/01/24 12:48:18;;;;;;;46.22;21.08;;;;;;;9.71;55.75;102214.84;5117087;28;20395;-92
2022/01/24 12:50:47;;;;;;;33.75;20.65;;;;;;;9.60;56.14;102217.00;5113953;28;20036;-92
2022/01/24 12:53:15;;;;;;;29.58;20.10;;;;;;;9.38;57.02;102215.13;5116643;28;20056;-92
2022/01/24 12:55:43;;;;;;;27.60;19.60;;;;;;;9.23;56.88;102220.88;5117209;28;20031;-93
2022/01/24 12:58:08;;;;;;;32.55;21.20;;;;;;;9.14;57.63;102195.81;5099305;28;20035;-92
2022/01/24 13:00:34;;;;;;;29.20;19.55;;;;;;;9.31;56.93;102218.84;5116228;28;20054;-91
2022/01/24 13:02:59;;;;;;;28.30;19.55;;;;;;;9.19;56.99;102214.88;5114536;28;20030;-93